createdAt,value
2023-02-07T00:00:16.886Z,102752.19
2023-02-07T00:02:48.116Z,102741.28
2023-02-07T00:05:15.638Z,102748.28
2023-02-07T00:07:42.765Z,102745.94
2023-02-07T00:10:09.848Z,102745.09
2023-02-07T00:12:36.415Z,102752.31
2023-02-07T00:15:03.073Z,102753.50
2023-02-07T00:17:29.603Z,102760.34
2023-02-07T00:19:56.330Z,102762.94
2023-02-07T00:22:22.948Z,102763.81
2023-02-07T00:24:49.558Z,102773.22
2023-02-07T00:27:16.126Z,102773.50
2023-02-07T00:29:42.676Z,102772.69
2023-02-07T00:32:09.394Z,102772.53
2023-02-07T00:34:38.641Z,102763.00
2023-02-07T00:37:06.069Z,102766.41
2023-02-07T00:39:33.366Z,102771.66
2023-02-07T00:42:00.450Z,102767.78
2023-02-07T00:44:27.329Z,102767.66
2023-02-07T00:46:53.890Z,102776.09
2023-02-07T00:49:20.542Z,102776.09
2023-02-07T00:51:47.280Z,102770.53
2023-02-07T00:54:13.840Z,102757.78
2023-02-07T00:56:40.457Z,102762.22
2023-02-07T00:59:07.113Z,102762.69
2023-02-07T01:01:33.898Z,102758.88
2023-02-07T01:04:00.626Z,102753.03
2023-02-07T01:06:28.109Z,102762.00
2023-02-07T01:08:59.066Z,102741.38
2023-02-07T01:11:26.574Z,102745.28
2023-02-07T01:13:53.282Z,102748.81
2023-02-07T01:16:22.914Z,102753.09
2023-02-07T01:18:49.520Z,102760.75
2023-02-07T01:21:19.010Z,102767.56
2023-02-07T01:23:45.654Z,102764.63
2023-02-07T01:26:12.407Z,102771.13
2023-02-07T01:28:39.362Z,102760.06
2023-02-07T01:31:11.320Z,102767.13
2023-02-07T01:33:38.611Z,102769.41
2023-02-07T01:36:15.687Z,102765.84
2023-02-07T01:38:42.821Z,102751.63
2023-02-07T01:41:10.612Z,102751.16
2023-02-07T01:44:15.473Z,102748.69
2023-02-07T01:46:43.421Z,102751.16
2023-02-07T01:49:13.407Z,102760.72
2023-02-07T01:51:44.148Z,102751.41
2023-02-07T01:54:12.965Z,102749.34
2023-02-07T01:56:44.106Z,102757.31
2023-02-07T01:59:11.665Z,102761.56
2023-02-07T02:01:38.350Z,102760.59
2023-02-07T02:04:05.108Z,102768.94
2023-02-07T02:06:36.046Z,102767.34
2023-02-07T02:09:10.807Z,102767.47
2023-02-07T02:11:57.612Z,102767.13
2023-02-07T02:14:36.447Z,102766.44
2023-02-07T02:17:28.135Z,102755.66
2023-02-07T02:20:32.015Z,102758.44
2023-02-07T02:23:04.585Z,102759.91
2023-02-07T02:25:57.637Z,102760.59
2023-02-07T02:28:33.819Z,102762.88
2023-02-07T02:31:09.845Z,102770.47
2023-02-07T02:33:47.902Z,102763.81
2023-02-07T02:37:02.191Z,102765.56
2023-02-07T02:39:49.166Z,102762.78
2023-02-07T02:42:26.188Z,102761.94
2023-02-07T02:44:57.738Z,102768.41
2023-02-07T02:47:26.058Z,102771.38
2023-02-07T02:49:52.635Z,102758.91
2023-02-07T02:52:19.170Z,102756.94
2023-02-07T02:54:45.750Z,102756.97
2023-02-07T02:57:40.182Z,102769.81
2023-02-07T03:00:13.245Z,102762.75
2023-02-07T03:03:03.447Z,102761.22
2023-02-07T03:06:01.054Z,102760.34
2023-02-07T03:08:35.822Z,102766.38
2023-02-07T03:11:12.968Z,102757.53
2023-02-07T03:14:28.176Z,102761.09
2023-02-07T03:17:16.018Z,102743.41
2023-02-07T03:20:01.520Z,102739.00
2023-02-07T03:22:29.082Z,102732.47
2023-02-07T03:24:58.758Z,102730.56
2023-02-07T03:27:28.823Z,102732.13
2023-02-07T03:29:59.139Z,102745.31
2023-02-07T03:32:33.705Z,102743.75
2023-02-07T03:35:08.389Z,102747.50
2023-02-07T03:37:46.299Z,102744.22
2023-02-07T03:40:13.055Z,102742.78
2023-02-07T03:42:39.553Z,102741.69
2023-02-07T03:45:11.794Z,102742.44
2023-02-07T03:47:38.426Z,102744.28
2023-02-07T03:50:05.433Z,102750.22
2023-02-07T03:52:32.206Z,102741.28
2023-02-07T03:54:58.824Z,102749.91
2023-02-07T03:57:25.390Z,102746.72
2023-02-07T03:59:51.958Z,102747.28
2023-02-07T04:02:18.635Z,102749.31
2023-02-07T04:04:45.239Z,102745.44
2023-02-07T04:07:12.275Z,102752.78
2023-02-07T04:09:38.818Z,102765.16
2023-02-07T04:12:05.596Z,102762.88
2023-02-07T04:14:32.296Z,102749.63
2023-02-07T04:16:58.985Z,102742.34
2023-02-07T04:19:25.518Z,102742.06
2023-02-07T04:21:52.084Z,102736.78
2023-02-07T04:24:18.747Z,102740.31
2023-02-07T04:26:45.286Z,102749.19
2023-02-07T04:29:11.896Z,102744.53
2023-02-07T04:31:38.620Z,102752.78
2023-02-07T04:34:05.959Z,102755.84
2023-02-07T04:36:32.569Z,102766.75
2023-02-07T04:38:59.121Z,102761.38
2023-02-07T04:41:25.689Z,102765.94
2023-02-07T04:43:52.321Z,102765.09
2023-02-07T04:46:19.092Z,102756.50
2023-02-07T04:48:45.659Z,102758.84
2023-02-07T04:51:12.225Z,102758.75
2023-02-07T04:53:38.750Z,102762.47
2023-02-07T04:56:05.711Z,102764.00
2023-02-07T04:58:32.274Z,102765.69
2023-02-07T05:00:58.886Z,102763.72
2023-02-07T05:03:25.614Z,102757.38
2023-02-07T05:05:55.126Z,102757.56
2023-02-07T05:08:22.881Z,102767.28
2023-02-07T05:10:54.689Z,102771.47
2023-02-07T05:13:22.197Z,102772.63
2023-02-07T05:15:48.828Z,102780.38
2023-02-07T05:18:15.946Z,102785.19
2023-02-07T05:20:42.524Z,102777.94
2023-02-07T05:23:09.276Z,102773.13
2023-02-07T05:25:36.091Z,102781.59
2023-02-07T05:28:03.097Z,102772.78
2023-02-07T05:30:29.851Z,102772.97
2023-02-07T05:33:08.600Z,102780.88
2023-02-07T05:35:43.922Z,102781.75
2023-02-07T05:38:12.935Z,102787.34
2023-02-07T05:40:41.455Z,102784.19
2023-02-07T05:43:08.788Z,102785.66
2023-02-07T05:45:35.765Z,102778.72
2023-02-07T05:48:03.024Z,102781.94
2023-02-07T05:50:30.263Z,102783.91
2023-02-07T05:52:56.794Z,102781.31
2023-02-07T05:55:23.408Z,102789.81
2023-02-07T05:57:50.068Z,102781.59
2023-02-07T06:00:18.849Z,102786.88
2023-02-07T06:02:45.774Z,102788.91
2023-02-07T06:05:15.342Z,102793.31
2023-02-07T06:07:41.907Z,102789.91
2023-02-07T06:10:09.106Z,102789.13
2023-02-07T06:12:35.851Z,102781.31
2023-02-07T06:15:03.478Z,102791.31
2023-02-07T06:17:30.397Z,102798.50
2023-02-07T06:19:57.474Z,102805.91
2023-02-07T06:22:25.640Z,102808.66
2023-02-07T06:24:52.203Z,102807.09
2023-02-07T06:27:18.790Z,102813.53
2023-02-07T06:29:45.360Z,102811.97
2023-02-07T06:32:11.919Z,102810.78
2023-02-07T06:34:38.433Z,102807.94
2023-02-07T06:37:04.992Z,102811.53
2023-02-07T06:39:31.470Z,102816.38
2023-02-07T06:41:58.030Z,102822.38
2023-02-07T06:44:24.762Z,102819.19
2023-02-07T06:46:51.360Z,102823.59
2023-02-07T06:49:17.846Z,102827.38
2023-02-07T06:51:44.417Z,102836.41
2023-02-07T06:54:11.003Z,102840.78
2023-02-07T06:56:37.725Z,102845.97
2023-02-07T06:59:04.860Z,102856.03
2023-02-07T07:01:31.766Z,102860.03
2023-02-07T07:03:58.473Z,102860.78
2023-02-07T07:06:25.035Z,102868.53
2023-02-07T07:08:51.852Z,102862.88
2023-02-07T07:11:19.039Z,102870.69
2023-02-07T07:13:45.955Z,102879.28
2023-02-07T07:16:12.909Z,102884.94
2023-02-07T07:18:39.840Z,102884.94
2023-02-07T07:21:06.648Z,102892.75
2023-02-07T07:23:33.314Z,102901.72
2023-02-07T07:26:00.138Z,102902.97
2023-02-07T07:28:26.735Z,102901.72
2023-02-07T07:30:53.510Z,102902.94
2023-02-07T07:33:20.325Z,102902.50
2023-02-07T07:35:47.141Z,102901.44
2023-02-07T07:38:13.730Z,102897.56
2023-02-07T07:40:40.578Z,102902.19
2023-02-07T07:43:07.296Z,102905.06
2023-02-07T07:45:34.260Z,102909.28
2023-02-07T07:48:00.875Z,102921.06
2023-02-07T07:50:27.765Z,102922.41
2023-02-07T07:52:54.527Z,102918.81
2023-02-07T07:55:21.104Z,102916.38
2023-02-07T07:57:47.687Z,102919.47
2023-02-07T08:00:14.790Z,102915.16
2023-02-07T08:02:42.648Z,102918.91
2023-02-07T08:05:11.927Z,102916.53
2023-02-07T08:07:39.768Z,102926.94
2023-02-07T08:10:06.633Z,102932.44
2023-02-07T08:12:33.166Z,102923.56
2023-02-07T08:14:59.717Z,102926.13
2023-02-07T08:17:26.285Z,102922.41
2023-02-07T08:19:53.346Z,102915.03
2023-02-07T08:22:20.401Z,102919.63
2023-02-07T08:24:46.950Z,102914.63
2023-02-07T08:27:13.567Z,102919.47
2023-02-07T08:29:40.193Z,102922.47
2023-02-07T08:32:06.954Z,102922.81
2023-02-07T08:34:37.526Z,102925.16
2023-02-07T08:37:05.956Z,102928.19
2023-02-07T08:39:33.546Z,102940.94
2023-02-07T08:42:00.360Z,102938.19
2023-02-07T08:44:27.763Z,102934.44
2023-02-07T08:46:54.429Z,102941.88
2023-02-07T08:49:20.990Z,102944.53
2023-02-07T08:51:47.589Z,102933.25
2023-02-07T08:54:14.361Z,102939.47
2023-02-07T08:56:40.923Z,102933.03
2023-02-07T08:59:07.560Z,102931.06
2023-02-07T09:01:34.228Z,102942.34
2023-02-07T09:04:00.937Z,102936.00
2023-02-07T09:06:27.548Z,102937.13
2023-02-07T09:08:54.128Z,102940.03
2023-02-07T09:11:20.986Z,102930.50
2023-02-07T09:13:47.575Z,102936.31
2023-02-07T09:16:17.001Z,102935.78
2023-02-07T09:18:43.850Z,102929.44
2023-02-07T09:21:10.538Z,102922.69
2023-02-07T09:23:37.257Z,102928.34
2023-02-07T09:26:06.638Z,102924.41
2023-02-07T09:28:33.818Z,102925.88
2023-02-07T09:31:00.429Z,102919.63
2023-02-07T09:33:27.252Z,102923.56
2023-02-07T09:35:54.684Z,102917.47
2023-02-07T09:38:23.672Z,102908.31
2023-02-07T09:40:52.027Z,102909.47
2023-02-07T09:43:42.931Z,102903.94
2023-02-07T09:46:33.827Z,102899.38
2023-02-07T09:49:15.707Z,102916.78
2023-02-07T09:51:44.790Z,102913.56
2023-02-07T09:54:34.678Z,102907.41
2023-02-07T09:57:08.235Z,102908.88
2023-02-07T09:59:51.895Z,102918.50
2023-02-07T10:02:46.102Z,102930.47
2023-02-07T10:05:17.269Z,102914.56
2023-02-07T10:07:48.882Z,102914.38
2023-02-07T10:10:40.236Z,102923.34
2023-02-07T10:13:25.632Z,102920.00
2023-02-07T10:16:17.679Z,102919.66
2023-02-07T10:19:14.945Z,102911.22
2023-02-07T10:21:53.988Z,102903.75
2023-02-07T10:24:38.922Z,102902.19
2023-02-07T10:27:13.955Z,102903.81
2023-02-07T10:30:03.820Z,102911.69
2023-02-07T10:32:33.980Z,102901.28
2023-02-07T10:35:07.593Z,102891.34
2023-02-07T10:37:38.037Z,102894.44
2023-02-07T10:40:17.223Z,102893.72
2023-02-07T10:42:48.629Z,102899.22
2023-02-07T10:45:15.659Z,102892.09
2023-02-07T10:47:42.730Z,102892.22
2023-02-07T10:50:29.402Z,102896.69
2023-02-07T10:52:58.568Z,102900.50
2023-02-07T10:55:43.303Z,102890.53
2023-02-07T10:58:38.277Z,102885.97
2023-02-07T11:01:05.170Z,102889.75
2023-02-07T11:03:31.806Z,102884.94
2023-02-07T11:06:07.889Z,102886.63
2023-02-07T11:08:35.686Z,102883.22
2023-02-07T11:11:26.523Z,102878.25
2023-02-07T11:13:55.257Z,102882.13
2023-02-07T11:16:23.926Z,102884.00
2023-02-07T11:18:59.928Z,102879.56
2023-02-07T11:21:26.654Z,102880.59
2023-02-07T11:23:56.558Z,102889.38
2023-02-07T11:26:24.167Z,102879.63
2023-02-07T11:28:53.542Z,102869.75
2023-02-07T11:31:27.412Z,102868.09
2023-02-07T11:33:54.007Z,102869.09
2023-02-07T11:36:23.483Z,102872.31
2023-02-07T11:38:54.420Z,102865.09
2023-02-07T11:41:28.042Z,102870.72
2023-02-07T11:44:00.995Z,102869.59
2023-02-07T11:46:39.938Z,102873.16
2023-02-07T11:49:17.980Z,102868.06
2023-02-07T11:51:44.922Z,102865.03
2023-02-07T11:54:14.508Z,102869.41
2023-02-07T11:56:45.426Z,102867.00
2023-02-07T11:59:33.578Z,102869.94
2023-02-07T12:02:21.258Z,102867.13
2023-02-07T12:04:48.176Z,102868.06
2023-02-07T12:07:34.281Z,102863.34
2023-02-07T12:10:03.746Z,102858.88
2023-02-07T12:12:45.150Z,102861.44
2023-02-07T12:15:17.905Z,102852.31
2023-02-07T12:17:47.276Z,102849.41
2023-02-07T12:20:25.242Z,102842.94
2023-02-07T12:23:11.595Z,102846.25
2023-02-07T12:25:59.818Z,102847.59
2023-02-07T12:28:32.453Z,102847.25
2023-02-07T12:31:06.153Z,102831.84
2023-02-07T12:33:45.727Z,102838.59
2023-02-07T12:36:20.506Z,102834.19
2023-02-07T12:38:54.393Z,102832.59
2023-02-07T12:41:30.264Z,102824.81
2023-02-07T12:44:15.321Z,102827.09
2023-02-07T12:47:01.077Z,102826.13
2023-02-07T12:49:44.876Z,102820.56
2023-02-07T12:52:20.523Z,102815.16
2023-02-07T12:55:01.779Z,102819.88
2023-02-07T12:57:45.083Z,102816.91
2023-02-07T13:00:44.096Z,102821.53
2023-02-07T13:03:38.732Z,102812.03
2023-02-07T13:06:05.805Z,102811.84
2023-02-07T13:08:55.603Z,102803.78
2023-02-07T13:11:44.616Z,102798.34
2023-02-07T13:14:36.554Z,102794.78
2023-02-07T13:17:08.964Z,102803.16
2023-02-07T13:19:49.491Z,102789.44
2023-02-07T13:22:22.117Z,102800.19
2023-02-07T13:24:49.672Z,102789.81
2023-02-07T13:27:20.695Z,102794.22
2023-02-07T13:29:50.084Z,102796.88
2023-02-07T13:32:25.257Z,102795.03
2023-02-07T13:35:01.106Z,102793.16
2023-02-07T13:37:53.895Z,102787.69
2023-02-07T13:40:29.678Z,102788.88
2023-02-07T13:43:05.618Z,102797.84
2023-02-07T13:45:56.950Z,102803.84
2023-02-07T13:49:10.205Z,102800.13
2023-02-07T13:51:48.988Z,102793.94
2023-02-07T13:54:43.636Z,102794.22
2023-02-07T13:57:41.120Z,102784.81
2023-02-07T14:00:13.830Z,102786.06
2023-02-07T14:02:42.951Z,102783.28
2023-02-07T14:05:17.332Z,102784.03
2023-02-07T14:07:52.517Z,102783.53
2023-02-07T14:10:42.913Z,102782.97
2023-02-07T14:13:27.969Z,102779.97
2023-02-07T14:15:59.022Z,102782.81
2023-02-07T14:18:46.056Z,102798.13
2023-02-07T14:21:18.815Z,102789.16
2023-02-07T14:23:57.782Z,102784.41
2023-02-07T14:26:39.632Z,102793.59
2023-02-07T14:29:24.251Z,102783.78
2023-02-07T14:32:02.435Z,102787.03
2023-02-07T14:34:31.994Z,102781.88
2023-02-07T14:37:00.325Z,102776.50
2023-02-07T14:39:30.742Z,102775.66
2023-02-07T14:42:16.718Z,102769.72
2023-02-07T14:44:47.914Z,102771.56
2023-02-07T14:47:28.400Z,102770.28
2023-02-07T14:50:00.582Z,102774.94
2023-02-07T14:52:31.725Z,102779.22
2023-02-07T14:55:16.041Z,102774.69
2023-02-07T14:58:00.137Z,102774.72
2023-02-07T15:00:35.596Z,102770.22
2023-02-07T15:03:09.447Z,102777.06
2023-02-07T15:05:48.816Z,102784.38
2023-02-07T15:08:19.476Z,102783.16
2023-02-07T15:10:51.888Z,102785.38
2023-02-07T15:13:22.374Z,102767.50
2023-02-07T15:16:01.657Z,102772.22
2023-02-07T15:18:32.184Z,102780.97
2023-02-07T15:21:00.055Z,102771.69
2023-02-07T15:23:29.929Z,102778.00
2023-02-07T15:25:58.696Z,102776.91
2023-02-07T15:28:28.189Z,102775.00
2023-02-07T15:30:56.439Z,102774.88
2023-02-07T15:33:24.878Z,102767.31
2023-02-07T15:35:51.748Z,102770.53
2023-02-07T15:38:24.621Z,102770.56
2023-02-07T15:40:52.997Z,102772.28
2023-02-07T15:43:32.535Z,102779.81
2023-02-07T15:46:11.052Z,102767.81
2023-02-07T15:48:50.511Z,102762.06
2023-02-07T15:51:19.781Z,102763.81
2023-02-07T15:53:50.764Z,102770.19
2023-02-07T15:56:17.913Z,102774.97
2023-02-07T15:58:44.692Z,102780.50
2023-02-07T16:01:21.624Z,102780.84
2023-02-07T16:03:48.370Z,102781.97
2023-02-07T16:06:26.080Z,102785.53
2023-02-07T16:09:01.134Z,102783.50
2023-02-07T16:11:27.657Z,102782.53
2023-02-07T16:14:12.673Z,102776.97
2023-02-07T16:16:51.513Z,102774.88
2023-02-07T16:19:21.548Z,102775.88
2023-02-07T16:21:54.767Z,102781.56
2023-02-07T16:24:23.414Z,102778.00
2023-02-07T16:26:51.376Z,102783.47
2023-02-07T16:29:24.668Z,102785.28
2023-02-07T16:31:52.798Z,102782.81
2023-02-07T16:34:20.473Z,102777.91
2023-02-07T16:36:54.880Z,102788.84
2023-02-07T16:39:23.417Z,102791.66
2023-02-07T16:41:52.293Z,102785.13
2023-02-07T16:44:23.000Z,102786.53
2023-02-07T16:46:50.046Z,102792.38
2023-02-07T16:49:22.317Z,102792.06
2023-02-07T16:51:51.294Z,102798.22
2023-02-07T16:54:18.268Z,102794.22
2023-02-07T16:56:46.683Z,102798.53
2023-02-07T16:59:18.748Z,102799.38
2023-02-07T17:01:46.255Z,102798.28
2023-02-07T17:04:13.741Z,102806.66
2023-02-07T17:06:42.029Z,102803.94
2023-02-07T17:09:38.095Z,102801.22
2023-02-07T17:12:04.861Z,102809.16
2023-02-07T17:14:31.458Z,102806.69
2023-02-07T17:16:59.607Z,102805.91
2023-02-07T17:19:27.302Z,102805.34
2023-02-07T17:21:54.339Z,102808.59
2023-02-07T17:24:21.202Z,102811.78
2023-02-07T17:26:51.105Z,102817.41
2023-02-07T17:29:19.044Z,102811.91
2023-02-07T17:31:46.018Z,102809.16
2023-02-07T17:34:13.141Z,102813.78
2023-02-07T17:36:45.133Z,102809.41
2023-02-07T17:39:16.535Z,102816.88
2023-02-07T17:41:43.453Z,102814.63
2023-02-07T17:44:10.063Z,102818.41
2023-02-07T17:46:36.990Z,102813.34
2023-02-07T17:49:03.689Z,102825.59
2023-02-07T17:51:30.270Z,102823.66
2023-02-07T17:53:56.920Z,102824.50
2023-02-07T17:56:29.099Z,102823.97
2023-02-07T17:58:58.804Z,102822.25
2023-02-07T18:01:25.631Z,102822.47
2023-02-07T18:03:53.978Z,102823.03
2023-02-07T18:06:23.511Z,102816.00
2023-02-07T18:08:50.531Z,102816.06
2023-02-07T18:11:17.477Z,102816.13
2023-02-07T18:13:46.666Z,102813.28
2023-02-07T18:16:15.648Z,102818.16
2023-02-07T18:18:42.255Z,102815.91
2023-02-07T18:21:09.098Z,102813.59
2023-02-07T18:23:35.761Z,102814.50
2023-02-07T18:26:03.395Z,102808.72
2023-02-07T18:28:30.040Z,102813.66
2023-02-07T18:30:56.873Z,102816.75
2023-02-07T18:33:24.656Z,102819.81
2023-02-07T18:35:56.639Z,102825.28
2023-02-07T18:38:23.287Z,102808.38
2023-02-07T18:40:50.144Z,102812.91
2023-02-07T18:43:16.711Z,102811.13
2023-02-07T18:45:43.631Z,102817.97
2023-02-07T18:48:10.190Z,102812.72
2023-02-07T18:50:37.232Z,102821.25
2023-02-07T18:53:05.500Z,102828.72
2023-02-07T18:55:32.072Z,102833.25
2023-02-07T18:57:58.735Z,102830.91
2023-02-07T19:00:25.341Z,102829.66
2023-02-07T19:02:51.949Z,102832.03
2023-02-07T19:05:20.582Z,102839.28
2023-02-07T19:07:47.182Z,102830.41
2023-02-07T19:10:16.400Z,102824.31
2023-02-07T19:12:43.225Z,102836.16
2023-02-07T19:15:10.150Z,102833.88
2023-02-07T19:17:36.822Z,102833.00
2023-02-07T19:20:15.659Z,102828.47
2023-02-07T19:22:42.376Z,102830.06
2023-02-07T19:25:09.153Z,102827.63
2023-02-07T19:27:35.703Z,102819.53
2023-02-07T19:30:02.396Z,102823.94
2023-02-07T19:32:28.906Z,102841.66
2023-02-07T19:34:55.468Z,102845.09
2023-02-07T19:37:22.431Z,102840.50
2023-02-07T19:39:49.354Z,102841.69
2023-02-07T19:42:16.512Z,102841.94
2023-02-07T19:44:43.109Z,102834.75
2023-02-07T19:47:10.049Z,102850.03
2023-02-07T19:49:36.574Z,102844.44
2023-02-07T19:52:03.413Z,102846.97
2023-02-07T19:54:30.030Z,102844.59
2023-02-07T19:56:56.596Z,102850.63
2023-02-07T19:59:23.342Z,102849.44
2023-02-07T20:01:50.067Z,102850.03
2023-02-07T20:04:16.683Z,102857.47
2023-02-07T20:06:43.183Z,102854.91
2023-02-07T20:09:10.432Z,102848.47
2023-02-07T20:11:37.132Z,102847.28
2023-02-07T20:14:04.168Z,102840.44
2023-02-07T20:16:34.195Z,102839.59
2023-02-07T20:19:05.810Z,102842.47
2023-02-07T20:21:34.672Z,102846.91
2023-02-07T20:24:01.563Z,102849.16
2023-02-07T20:26:31.730Z,102839.66
2023-02-07T20:29:02.891Z,102847.47
2023-02-07T20:31:31.776Z,102845.09
2023-02-07T20:33:59.496Z,102845.56
2023-02-07T20:36:27.385Z,102852.56
2023-02-07T20:38:58.977Z,102862.59
2023-02-07T20:41:30.658Z,102855.22
2023-02-07T20:44:05.434Z,102850.69
2023-02-07T20:46:36.535Z,102858.59
2023-02-07T20:49:16.479Z,102853.66
2023-02-07T20:51:44.466Z,102856.84
2023-02-07T20:54:12.705Z,102858.88
2023-02-07T20:56:39.340Z,102866.84
2023-02-07T20:59:06.508Z,102857.25
2023-02-07T21:01:34.103Z,102858.69
2023-02-07T21:04:04.271Z,102849.63
2023-02-07T21:06:32.282Z,102854.00
2023-02-07T21:09:01.204Z,102861.84
2023-02-07T21:11:34.666Z,102855.34
2023-02-07T21:14:02.528Z,102843.41
2023-02-07T21:16:30.972Z,102843.53
2023-02-07T21:18:58.202Z,102846.53
2023-02-07T21:21:25.026Z,102847.25
2023-02-07T21:23:51.562Z,102851.84
2023-02-07T21:26:19.062Z,102851.41
2023-02-07T21:28:46.428Z,102852.28
2023-02-07T21:31:18.706Z,102853.06
2023-02-07T21:33:46.086Z,102842.53
2023-02-07T21:36:16.516Z,102848.53
2023-02-07T21:38:45.525Z,102840.38
2023-02-07T21:41:14.229Z,102839.38
2023-02-07T21:43:42.093Z,102842.69
2023-02-07T21:46:11.946Z,102846.31
2023-02-07T21:48:39.669Z,102843.91
2023-02-07T21:51:12.056Z,102839.38
2023-02-07T21:53:38.661Z,102850.72
2023-02-07T21:56:11.631Z,102853.13
2023-02-07T21:58:38.762Z,102846.31
2023-02-07T22:01:17.186Z,102846.75
2023-02-07T22:03:47.038Z,102841.13
2023-02-07T22:06:15.473Z,102852.53
2023-02-07T22:08:47.244Z,102848.38
2023-02-07T22:11:13.952Z,102834.91
2023-02-07T22:13:42.316Z,102826.09
2023-02-07T22:16:10.660Z,102823.09
2023-02-07T22:18:37.560Z,102828.56
2023-02-07T22:21:10.474Z,102823.13
2023-02-07T22:23:37.513Z,102831.00
2023-02-07T22:26:04.591Z,102829.28
2023-02-07T22:28:31.357Z,102825.56
2023-02-07T22:30:58.739Z,102827.50
2023-02-07T22:33:25.818Z,102822.31
2023-02-07T22:35:52.433Z,102827.13
2023-02-07T22:38:19.273Z,102805.22
2023-02-07T22:40:46.032Z,102808.13
2023-02-07T22:43:16.122Z,102803.13
2023-02-07T22:45:46.061Z,102803.94
2023-02-07T22:48:14.916Z,102800.94
2023-02-07T22:50:42.434Z,102799.19
2023-02-07T22:53:11.448Z,102801.00
2023-02-07T22:55:39.950Z,102812.69
2023-02-07T22:58:07.110Z,102803.84
2023-02-07T23:00:34.272Z,102814.66
2023-02-07T23:03:01.486Z,102801.81
2023-02-07T23:05:28.667Z,102803.78
2023-02-07T23:07:55.379Z,102806.38
2023-02-07T23:10:21.968Z,102806.38
2023-02-07T23:12:48.571Z,102800.78
2023-02-07T23:15:15.154Z,102805.81
2023-02-07T23:17:42.023Z,102802.25
2023-02-07T23:20:08.913Z,102810.91
2023-02-07T23:22:39.094Z,102802.13
2023-02-07T23:25:06.952Z,102798.94
2023-02-07T23:27:33.652Z,102799.09
2023-02-07T23:30:00.251Z,102812.34
2023-02-07T23:32:27.076Z,102809.97
2023-02-07T23:34:53.573Z,102809.16
2023-02-07T23:37:22.350Z,102815.59
2023-02-07T23:39:49.098Z,102811.97
2023-02-07T23:42:15.667Z,102807.16
2023-02-07T23:44:42.247Z,102806.56
2023-02-07T23:47:08.827Z,102803.75
2023-02-07T23:49:35.371Z,102812.38
2023-02-07T23:52:02.124Z,102806.75
2023-02-07T23:54:28.691Z,102807.75
2023-02-07T23:56:55.230Z,102805.56
2023-02-07T23:59:21.838Z,102794.34
